createdAt,value
2019-03-30T00:01:02.517Z,6.95
2019-03-30T00:03:33.689Z,7.01
2019-03-30T00:06:05.014Z,6.85
2019-03-30T00:08:35.769Z,6.85
2019-03-30T00:11:07.443Z,6.81
2019-03-30T00:13:38.317Z,6.80
2019-03-30T00:16:10.142Z,6.73
2019-03-30T00:18:41.558Z,6.71
2019-03-30T00:21:12.074Z,6.68
2019-03-30T00:23:43.000Z,6.68
2019-03-30T00:26:13.577Z,6.75
2019-03-30T00:28:45.135Z,6.41
2019-03-30T00:31:15.995Z,6.30
2019-03-30T00:33:46.131Z,6.21
2019-03-30T00:36:16.772Z,6.08
2019-03-30T00:38:46.004Z,5.80
2019-03-30T00:41:16.306Z,5.90
2019-03-30T00:43:47.267Z,6.17
2019-03-30T00:46:17.989Z,6.31
2019-03-30T00:48:48.507Z,6.29
2019-03-30T00:51:19.010Z,6.26
2019-03-30T00:53:49.428Z,6.29
2019-03-30T00:56:19.951Z,6.73
2019-03-30T00:58:50.140Z,6.51
2019-03-30T01:01:20.653Z,6.44
2019-03-30T01:03:50.899Z,6.17
2019-03-30T01:06:21.015Z,6.17
2019-03-30T01:08:51.003Z,6.16
2019-03-30T01:11:21.058Z,6.09
2019-03-30T01:13:51.648Z,6.23
2019-03-30T01:16:21.921Z,6.10
2019-03-30T01:18:53.571Z,6.10
2019-03-30T01:21:23.897Z,5.81
2019-03-30T01:26:38.544Z,5.99
2019-03-30T01:29:08.765Z,5.73
2019-03-30T01:31:37.887Z,5.88
2019-03-30T01:34:08.081Z,5.84
2019-03-30T01:36:38.543Z,5.91
2019-03-30T01:39:09.317Z,5.86
2019-03-30T01:41:39.724Z,5.91
2019-03-30T01:44:09.993Z,5.97
2019-03-30T01:46:40.440Z,5.96
2019-03-30T01:49:11.822Z,5.73
2019-03-30T01:51:41.981Z,5.91
2019-03-30T01:54:13.757Z,5.85
2019-03-30T01:56:44.318Z,5.93
2019-03-30T01:59:14.942Z,5.77
2019-03-30T02:01:45.055Z,5.73
2019-03-30T02:04:15.859Z,5.91
2019-03-30T02:06:46.005Z,5.84
2019-03-30T02:09:17.556Z,5.69
2019-03-30T02:11:47.954Z,5.67
2019-03-30T02:14:18.046Z,5.64
2019-03-30T02:16:48.554Z,5.56
2019-03-30T02:19:19.131Z,5.47
2019-03-30T02:21:49.529Z,5.48
2019-03-30T02:24:19.962Z,5.45
2019-03-30T02:26:50.002Z,5.25
2019-03-30T02:29:21.297Z,5.30
2019-03-30T02:31:51.648Z,5.19
2019-03-30T02:34:22.002Z,4.82
2019-03-30T02:36:52.105Z,4.82
2019-03-30T02:39:22.596Z,4.75
2019-03-30T02:41:52.947Z,4.58
2019-03-30T02:44:23.300Z,4.58
2019-03-30T02:46:53.723Z,4.65
2019-03-30T02:49:23.055Z,4.66
2019-03-30T02:51:53.437Z,4.65
2019-03-30T02:54:23.806Z,4.59
2019-03-30T02:56:52.950Z,4.43
2019-03-30T02:59:23.014Z,4.44
2019-03-30T03:01:53.156Z,4.41
2019-03-30T03:04:23.538Z,4.52
2019-03-30T03:06:54.948Z,4.53
2019-03-30T03:09:25.416Z,4.53
2019-03-30T03:11:55.719Z,4.55
2019-03-30T03:14:24.842Z,4.64
2019-03-30T03:16:55.126Z,4.86
2019-03-30T03:19:25.945Z,4.64
2019-03-30T03:21:55.984Z,4.62
2019-03-30T03:24:26.246Z,4.63
2019-03-30T03:26:56.949Z,4.66
2019-03-30T03:29:26.967Z,4.56
2019-03-30T03:31:57.086Z,4.54
2019-03-30T03:34:27.398Z,4.24
2019-03-30T03:36:57.729Z,4.53
2019-03-30T03:39:28.932Z,4.57
2019-03-30T03:43:38.935Z,4.22
2019-03-30T03:46:09.310Z,4.32
2019-03-30T03:48:39.928Z,4.33
2019-03-30T03:51:25.002Z,4.73
2019-03-30T03:53:43.107Z,4.48
2019-03-30T03:56:19.779Z,4.38
2019-03-30T03:58:54.935Z,3.91
2019-03-30T04:01:28.558Z,3.91
2019-03-30T04:04:02.895Z,4.01
2019-03-30T04:06:40.181Z,4.01
2019-03-30T04:09:11.069Z,3.80
2019-03-30T04:11:46.129Z,4.19
2019-03-30T04:14:24.489Z,4.17
2019-03-30T04:16:54.711Z,4.18
2019-03-30T04:19:24.919Z,3.96
2019-03-30T04:21:54.973Z,3.89
2019-03-30T04:24:25.064Z,4.10
2019-03-30T04:26:55.717Z,4.04
2019-03-30T04:29:25.025Z,3.55
2019-03-30T04:31:55.539Z,3.53
2019-03-30T04:34:25.929Z,3.56
2019-03-30T04:36:56.133Z,3.47
2019-03-30T04:39:26.465Z,3.32
2019-03-30T04:41:56.725Z,3.33
2019-03-30T04:44:26.988Z,3.55
2019-03-30T04:46:57.021Z,3.43
2019-03-30T04:49:27.239Z,3.37
2019-03-30T04:51:58.225Z,3.36
2019-03-30T04:54:28.726Z,3.36
2019-03-30T04:56:57.974Z,3.23
2019-03-30T04:59:28.109Z,3.36
2019-03-30T05:01:58.696Z,3.31
2019-03-30T05:04:28.962Z,3.36
2019-03-30T05:06:59.001Z,3.36
2019-03-30T05:09:28.966Z,3.35
2019-03-30T05:11:59.568Z,3.68
2019-03-30T05:14:29.987Z,3.49
2019-03-30T05:17:00.132Z,3.49
2019-03-30T05:19:30.604Z,3.63
2019-03-30T05:22:11.482Z,3.78
2019-03-30T05:24:33.249Z,3.78
2019-03-30T05:27:03.822Z,4.02
2019-03-30T05:29:34.485Z,4.01
2019-03-30T05:32:04.981Z,4.11
2019-03-30T05:34:35.606Z,4.30
2019-03-30T05:38:01.934Z,4.45
2019-03-30T05:40:31.986Z,4.45
2019-03-30T05:43:03.013Z,4.56
2019-03-30T05:45:33.048Z,4.68
2019-03-30T05:48:03.688Z,6.02
2019-03-30T05:50:57.382Z,9.01
2019-03-30T05:54:11.144Z,9.01
2019-03-30T05:56:41.587Z,9.98
2019-03-30T05:59:11.904Z,12.64
2019-03-30T06:01:42.625Z,12.64
2019-03-30T06:04:12.950Z,14.76
2019-03-30T06:06:43.113Z,14.76
2019-03-30T06:09:13.593Z,15.04
2019-03-30T06:11:42.921Z,15.59
2019-03-30T06:14:13.004Z,16.39
2019-03-30T06:16:43.548Z,16.98
2019-03-30T06:19:13.858Z,17.79
2019-03-30T06:21:44.098Z,18.48
2019-03-30T06:24:15.278Z,19.21
2019-03-30T06:26:45.554Z,20.11
2019-03-30T06:29:15.714Z,20.30
2019-03-30T06:31:46.787Z,20.16
2019-03-30T06:34:15.928Z,19.64
2019-03-30T06:36:46.539Z,19.54
2019-03-30T06:39:18.299Z,20.75
2019-03-30T06:41:48.907Z,20.75
2019-03-30T06:44:19.550Z,21.31
2019-03-30T06:46:49.983Z,21.83
2019-03-30T06:49:20.288Z,21.83
2019-03-30T06:51:50.927Z,21.71
2019-03-30T06:54:21.291Z,21.50
2019-03-30T06:56:51.774Z,20.58
2019-03-30T06:59:20.840Z,20.64
2019-03-30T07:01:51.638Z,20.05
2019-03-30T07:04:22.017Z,19.86
2019-03-30T07:06:54.063Z,19.74
2019-03-30T07:09:28.012Z,19.16
2019-03-30T07:12:02.579Z,20.56
2019-03-30T07:14:37.488Z,20.66
2019-03-30T07:17:12.675Z,20.66
2019-03-30T07:19:47.554Z,22.42
2019-03-30T07:22:17.752Z,22.42
2019-03-30T07:24:46.844Z,24.02
2019-03-30T07:27:16.942Z,23.96
2019-03-30T07:29:47.062Z,23.95
2019-03-30T07:32:17.584Z,23.59
2019-03-30T07:34:47.932Z,21.68
2019-03-30T07:37:18.700Z,21.68
2019-03-30T07:39:47.994Z,21.84
2019-03-30T07:42:18.778Z,21.84
2019-03-30T07:44:49.060Z,21.51
2019-03-30T07:47:19.835Z,22.08
2019-03-30T07:49:50.002Z,22.72
2019-03-30T07:52:20.397Z,22.46
2019-03-30T07:54:50.936Z,22.46
2019-03-30T07:57:21.066Z,22.12
2019-03-30T07:59:51.595Z,22.16
2019-03-30T08:02:21.952Z,21.72
2019-03-30T08:04:52.728Z,21.72
2019-03-30T08:07:21.968Z,22.83
2019-03-30T08:09:51.999Z,22.77
2019-03-30T08:12:22.937Z,23.77
2019-03-30T08:14:53.563Z,24.02
2019-03-30T08:17:24.649Z,24.63
2019-03-30T08:19:56.446Z,25.35
2019-03-30T08:22:26.769Z,26.81
2019-03-30T08:24:57.049Z,25.74
2019-03-30T08:27:27.560Z,27.26
2019-03-30T08:29:57.840Z,28.61
2019-03-30T08:32:27.902Z,26.88
2019-03-30T08:34:58.015Z,27.56
2019-03-30T08:37:30.069Z,27.39
2019-03-30T08:40:00.735Z,29.38
2019-03-30T08:42:32.103Z,31.36
2019-03-30T08:45:02.548Z,32.27
2019-03-30T08:47:32.919Z,32.19
2019-03-30T08:50:05.135Z,31.71
2019-03-30T08:52:35.637Z,31.16
2019-03-30T08:55:07.248Z,32.91
2019-03-30T08:57:37.869Z,32.91
2019-03-30T09:00:09.018Z,34.80
2019-03-30T09:02:39.878Z,35.10
2019-03-30T09:05:12.618Z,35.45
2019-03-30T09:07:41.860Z,35.75
2019-03-30T09:10:12.121Z,34.63
2019-03-30T09:12:42.916Z,33.13
2019-03-30T09:15:13.632Z,34.07
2019-03-30T09:17:43.264Z,37.34
2019-03-30T09:20:14.028Z,37.34
2019-03-30T09:22:46.973Z,37.35
2019-03-30T09:25:17.767Z,36.63
2019-03-30T09:27:47.062Z,37.68
2019-03-30T09:30:18.000Z,38.21
2019-03-30T09:32:48.915Z,38.74
2019-03-30T09:35:20.319Z,39.73
2019-03-30T09:37:51.049Z,39.86
2019-03-30T09:40:22.552Z,39.81
2019-03-30T09:42:53.042Z,39.94
2019-03-30T09:45:24.103Z,38.01
2019-03-30T09:47:54.582Z,38.21
2019-03-30T09:50:24.960Z,38.22
2019-03-30T09:52:55.691Z,37.54
2019-03-30T09:55:27.365Z,37.98
2019-03-30T09:57:56.913Z,39.18
2019-03-30T10:00:27.164Z,39.18
2019-03-30T10:02:57.641Z,38.84
2019-03-30T10:05:26.935Z,37.97
2019-03-30T10:07:57.098Z,37.97
2019-03-30T10:10:27.520Z,39.11
2019-03-30T10:12:57.894Z,38.06
2019-03-30T10:15:28.680Z,38.06
2019-03-30T10:17:57.911Z,37.39
2019-03-30T10:20:28.151Z,39.29
2019-03-30T10:22:58.571Z,39.98
2019-03-30T10:25:28.942Z,39.16
2019-03-30T10:27:59.306Z,39.16
2019-03-30T10:30:29.688Z,39.95
2019-03-30T10:32:59.529Z,39.74
2019-03-30T10:35:29.961Z,39.74
2019-03-30T10:38:00.002Z,38.65
2019-03-30T10:40:30.565Z,40.51
2019-03-30T10:43:00.902Z,41.95
2019-03-30T10:45:31.086Z,41.95
2019-03-30T10:48:01.599Z,41.15
2019-03-30T10:50:30.974Z,40.63
2019-03-30T10:53:01.610Z,40.63
2019-03-30T10:55:31.922Z,41.53
2019-03-30T10:58:02.412Z,41.53
2019-03-30T11:00:39.626Z,41.15
2019-03-30T11:03:09.927Z,41.10
2019-03-30T11:05:40.150Z,41.10
2019-03-30T11:08:11.710Z,41.82
2019-03-30T11:10:40.924Z,41.56
2019-03-30T11:13:11.165Z,41.28
2019-03-30T11:15:41.759Z,41.60
2019-03-30T11:18:11.941Z,40.84
2019-03-30T11:20:42.114Z,40.90
2019-03-30T11:23:12.658Z,40.64
2019-03-30T11:25:41.979Z,40.90
2019-03-30T11:28:12.595Z,40.90
2019-03-30T11:30:42.986Z,41.24
2019-03-30T11:33:13.509Z,41.24
2019-03-30T11:35:44.003Z,41.29
2019-03-30T11:38:14.808Z,41.31
2019-03-30T11:40:45.117Z,38.85
2019-03-30T11:43:15.729Z,37.82
2019-03-30T11:45:44.830Z,39.96
2019-03-30T11:48:14.938Z,39.63
2019-03-30T11:50:45.287Z,39.96
2019-03-30T11:53:16.471Z,40.48
2019-03-30T11:55:46.913Z,38.77
2019-03-30T11:58:17.046Z,38.81
2019-03-30T12:00:47.645Z,39.16
2019-03-30T12:03:17.900Z,38.65
2019-03-30T12:05:48.063Z,38.65
2019-03-30T12:08:18.138Z,38.79
2019-03-30T12:10:48.618Z,39.14
2019-03-30T12:13:17.872Z,37.64
2019-03-30T12:15:48.301Z,38.23
2019-03-30T12:18:18.761Z,38.16
2019-03-30T12:20:47.909Z,37.66
2019-03-30T12:23:18.615Z,36.13
2019-03-30T12:25:49.019Z,36.60
2019-03-30T12:28:19.551Z,36.60
2019-03-30T12:30:49.780Z,36.88
2019-03-30T12:33:20.039Z,37.31
2019-03-30T12:35:50.527Z,37.14
2019-03-30T12:38:20.872Z,37.54
2019-03-30T12:40:51.110Z,37.53
2019-03-30T12:43:21.584Z,37.30
2019-03-30T12:45:52.122Z,37.96
2019-03-30T12:48:22.611Z,37.96
2019-03-30T12:50:51.705Z,37.26
2019-03-30T12:53:21.648Z,36.72
2019-03-30T12:55:51.034Z,35.52
2019-03-30T12:58:21.638Z,35.52
2019-03-30T13:00:51.964Z,36.61
2019-03-30T13:03:22.444Z,36.13
2019-03-30T13:05:52.810Z,35.88
2019-03-30T13:08:23.973Z,34.76
2019-03-30T13:10:55.067Z,35.06
2019-03-30T13:13:26.845Z,35.39
2019-03-30T13:15:57.846Z,35.14
2019-03-30T13:18:28.673Z,34.54
2019-03-30T13:20:57.967Z,33.11
2019-03-30T13:23:28.041Z,33.11
2019-03-30T13:26:03.915Z,33.06
2019-03-30T13:28:34.435Z,31.46
2019-03-30T13:31:04.990Z,30.97
2019-03-30T13:33:35.726Z,31.01
2019-03-30T13:36:10.741Z,31.46
2019-03-30T13:38:41.879Z,30.80
2019-03-30T13:41:14.333Z,30.03
2019-03-30T13:43:45.106Z,29.74
2019-03-30T13:46:15.901Z,29.74
2019-03-30T13:48:46.409Z,29.99
2019-03-30T13:51:17.379Z,29.97
2019-03-30T13:53:48.149Z,30.45
2019-03-30T13:56:18.734Z,30.63
2019-03-30T13:58:48.050Z,30.95
2019-03-30T14:01:18.738Z,30.66
2019-03-30T14:03:48.002Z,30.45
2019-03-30T14:06:18.926Z,30.45
2019-03-30T14:08:49.103Z,29.75
2019-03-30T14:11:19.746Z,30.16
2019-03-30T14:13:48.868Z,29.65
2019-03-30T14:16:20.508Z,28.96
2019-03-30T14:18:51.111Z,29.21
2019-03-30T14:21:21.971Z,28.90
2019-03-30T14:23:54.141Z,28.50
2019-03-30T14:26:31.184Z,28.53
2019-03-30T14:28:57.320Z,27.05
2019-03-30T14:31:28.058Z,27.05
2019-03-30T14:33:58.572Z,25.66
2019-03-30T14:36:28.994Z,25.56
2019-03-30T14:38:59.371Z,25.56
2019-03-30T14:41:29.749Z,25.57
2019-03-30T14:43:58.878Z,25.34
2019-03-30T14:46:29.650Z,24.93
2019-03-30T14:48:59.939Z,24.87
2019-03-30T14:51:30.044Z,25.04
2019-03-30T14:54:00.797Z,25.05
2019-03-30T14:56:44.563Z,25.10
2019-03-30T14:59:10.021Z,25.21
2019-03-30T15:01:36.298Z,25.14
2019-03-30T15:04:06.952Z,24.35
2019-03-30T15:06:37.628Z,24.49
2019-03-30T15:09:08.482Z,24.54
2019-03-30T15:11:38.314Z,23.50
2019-03-30T15:14:09.117Z,23.37
2019-03-30T15:16:40.102Z,23.37
2019-03-30T15:19:11.060Z,23.95
2019-03-30T15:21:41.777Z,23.38
2019-03-30T15:24:10.937Z,23.74
2019-03-30T15:26:41.096Z,23.69
2019-03-30T15:29:11.846Z,23.93
2019-03-30T15:31:42.046Z,23.82
2019-03-30T15:34:12.520Z,24.01
2019-03-30T15:36:42.112Z,22.62
2019-03-30T15:39:13.702Z,22.62
2019-03-30T15:41:43.429Z,22.62
2019-03-30T15:44:13.721Z,22.51
2019-03-30T15:46:43.614Z,23.00
2019-03-30T15:49:12.908Z,22.14
2019-03-30T15:51:43.030Z,22.25
2019-03-30T15:54:13.621Z,22.14
2019-03-30T15:56:42.939Z,22.27
2019-03-30T15:59:13.712Z,22.27
2019-03-30T16:01:42.876Z,22.30
2019-03-30T16:04:13.424Z,22.08
2019-03-30T16:06:43.956Z,22.08
2019-03-30T16:09:14.063Z,21.29
2019-03-30T16:11:44.440Z,21.69
2019-03-30T16:14:14.914Z,21.46
2019-03-30T16:16:47.145Z,20.98
2019-03-30T16:19:17.942Z,21.13
2019-03-30T16:21:49.707Z,21.13
2019-03-30T16:24:20.294Z,21.23
2019-03-30T16:26:51.011Z,21.52
2019-03-30T16:29:21.541Z,21.42
2019-03-30T16:31:51.909Z,21.58
2019-03-30T16:34:22.805Z,21.98
2019-03-30T16:36:53.575Z,21.85
2019-03-30T16:39:24.094Z,21.44
2019-03-30T16:41:55.755Z,21.44
2019-03-30T16:44:24.986Z,21.42
2019-03-30T16:46:57.446Z,21.20
2019-03-30T16:49:28.065Z,21.01
2019-03-30T16:51:59.010Z,21.01
2019-03-30T16:54:29.950Z,20.99
2019-03-30T16:57:00.290Z,21.13
2019-03-30T16:59:31.162Z,21.24
2019-03-30T17:02:01.950Z,21.10
2019-03-30T17:04:32.693Z,21.02
2019-03-30T17:07:02.034Z,20.96
2019-03-30T17:09:33.299Z,20.96
2019-03-30T17:12:04.043Z,20.52
2019-03-30T17:14:34.931Z,20.64
2019-03-30T17:17:06.639Z,20.50
2019-03-30T17:19:36.920Z,20.56
2019-03-30T17:22:07.530Z,20.10
2019-03-30T17:24:38.405Z,19.95
2019-03-30T17:27:10.004Z,19.80
2019-03-30T17:29:40.758Z,19.80
2019-03-30T17:32:11.602Z,19.61
2019-03-30T17:34:42.004Z,19.11
2019-03-30T17:37:14.407Z,19.11
2019-03-30T17:39:44.906Z,18.85
2019-03-30T17:42:15.295Z,18.55
2019-03-30T17:44:45.706Z,18.50
2019-03-30T17:47:16.927Z,18.17
2019-03-30T17:49:46.962Z,18.07
2019-03-30T17:52:17.916Z,17.82
2019-03-30T17:54:48.038Z,17.70
2019-03-30T17:57:19.315Z,17.61
2019-03-30T17:59:49.889Z,17.52
2019-03-30T18:02:23.146Z,17.36
2019-03-30T18:04:53.826Z,17.22
2019-03-30T18:07:25.487Z,17.10
2019-03-30T18:09:57.124Z,16.65
2019-03-30T18:12:28.577Z,16.65
2019-03-30T18:15:03.028Z,16.49
2019-03-30T18:17:34.680Z,16.46
2019-03-30T18:20:06.303Z,16.46
2019-03-30T18:22:38.169Z,16.34
2019-03-30T18:25:09.599Z,16.14
2019-03-30T18:27:40.189Z,16.03
2019-03-30T18:30:12.290Z,16.09
2019-03-30T18:32:44.103Z,16.04
2019-03-30T18:35:15.137Z,15.97
2019-03-30T18:37:46.139Z,15.90
2019-03-30T18:40:32.108Z,15.71
2019-03-30T18:43:04.089Z,15.60
2019-03-30T18:45:35.048Z,15.24
2019-03-30T18:48:18.946Z,15.06
2019-03-30T18:50:49.297Z,14.95
2019-03-30T18:53:20.545Z,14.77
2019-03-30T18:55:50.951Z,14.79
2019-03-30T18:58:21.762Z,14.66
2019-03-30T19:00:52.123Z,14.58
2019-03-30T19:03:22.801Z,14.44
2019-03-30T19:05:52.958Z,14.25
2019-03-30T19:08:23.856Z,14.26
2019-03-30T19:10:56.092Z,14.10
2019-03-30T19:13:26.918Z,14.12
2019-03-30T19:15:57.800Z,13.94
2019-03-30T19:18:28.108Z,13.89
2019-03-30T19:20:58.600Z,13.80
2019-03-30T19:23:29.117Z,13.75
2019-03-30T19:25:59.887Z,13.75
2019-03-30T19:28:30.747Z,13.66
2019-03-30T19:30:59.985Z,13.48
2019-03-30T19:33:30.758Z,13.64
2019-03-30T19:36:00.278Z,14.29
2019-03-30T19:38:30.745Z,13.91
2019-03-30T19:41:01.238Z,14.14
2019-03-30T19:43:43.043Z,13.88
2019-03-30T19:46:16.066Z,13.52
2019-03-30T19:48:46.896Z,13.07
2019-03-30T19:51:17.804Z,13.20
2019-03-30T19:53:48.108Z,13.32
2019-03-30T19:56:18.545Z,13.57
2019-03-30T19:58:48.918Z,13.39
2019-03-30T20:01:19.581Z,13.08
2019-03-30T20:03:50.000Z,12.96
2019-03-30T20:06:20.144Z,12.45
2019-03-30T20:08:50.563Z,12.41
2019-03-30T20:11:20.488Z,12.33
2019-03-30T20:13:51.994Z,12.19
2019-03-30T20:16:23.986Z,12.14
2019-03-30T20:19:11.133Z,12.14
2019-03-30T20:21:26.927Z,11.99
2019-03-30T20:23:57.450Z,11.83
2019-03-30T20:26:28.158Z,11.80
2019-03-30T20:29:00.736Z,11.71
2019-03-30T20:31:29.963Z,11.71
2019-03-30T20:34:00.598Z,11.73
2019-03-30T20:36:30.962Z,12.23
2019-03-30T20:39:01.586Z,12.23
2019-03-30T20:41:33.756Z,12.13
2019-03-30T20:44:02.878Z,11.92
2019-03-30T20:46:33.049Z,11.90
2019-03-30T20:49:03.602Z,11.67
2019-03-30T20:51:33.111Z,11.53
2019-03-30T20:54:03.705Z,11.42
2019-03-30T20:56:32.710Z,11.70
2019-03-30T20:59:01.965Z,11.66
2019-03-30T21:01:32.463Z,11.49
2019-03-30T21:04:03.281Z,11.40
2019-03-30T21:06:34.312Z,11.40
2019-03-30T21:09:12.913Z,11.28
2019-03-30T21:11:43.878Z,11.35
2019-03-30T21:14:15.100Z,11.22
2019-03-30T21:16:45.662Z,11.25
2019-03-30T21:19:16.029Z,11.21
2019-03-30T21:21:47.751Z,11.21
2019-03-30T21:24:17.264Z,11.09
2019-03-30T21:26:47.698Z,11.21
2019-03-30T21:29:19.987Z,11.01
2019-03-30T21:31:50.930Z,10.92
2019-03-30T21:34:21.110Z,10.72
2019-03-30T21:36:51.585Z,10.68
2019-03-30T21:39:20.874Z,10.61
2019-03-30T21:41:51.037Z,10.50
2019-03-30T21:44:23.890Z,10.56
2019-03-30T21:46:54.571Z,10.56
2019-03-30T21:49:25.080Z,10.31
2019-03-30T21:51:55.760Z,10.10
2019-03-30T21:54:25.016Z,9.79
2019-03-30T21:56:55.549Z,9.99
2019-03-30T21:59:27.988Z,10.14
2019-03-30T22:01:58.149Z,10.01
2019-03-30T22:04:28.584Z,10.02
2019-03-30T22:07:00.787Z,9.75
2019-03-30T22:09:30.005Z,9.75
2019-03-30T22:12:00.671Z,9.56
2019-03-30T22:14:30.949Z,9.61
2019-03-30T22:17:01.771Z,9.61
2019-03-30T22:19:30.889Z,9.55
2019-03-30T22:22:04.605Z,9.30
2019-03-30T22:24:34.780Z,8.90
2019-03-30T22:27:04.991Z,8.90
2019-03-30T22:29:35.754Z,8.68
2019-03-30T22:32:04.955Z,8.81
2019-03-30T22:34:35.304Z,8.90
2019-03-30T22:37:05.756Z,8.95
2019-03-30T22:39:34.939Z,8.83
2019-03-30T22:42:05.103Z,8.93
2019-03-30T22:44:35.867Z,8.86
2019-03-30T22:47:06.900Z,8.97
2019-03-30T22:49:38.030Z,8.89
2019-03-30T22:52:08.490Z,8.88
2019-03-30T22:54:38.998Z,8.84
2019-03-30T22:57:09.117Z,8.90
2019-03-30T22:59:40.008Z,8.85
2019-03-30T23:02:10.707Z,8.89
2019-03-30T23:04:40.961Z,8.82
2019-03-30T23:07:11.979Z,9.03
2019-03-30T23:09:42.695Z,9.04
2019-03-30T23:12:11.927Z,9.04
2019-03-30T23:14:42.063Z,9.02
2019-03-30T23:17:12.736Z,9.04
2019-03-30T23:19:42.121Z,9.12
2019-03-30T23:22:12.605Z,9.01
2019-03-30T23:24:43.012Z,8.86
2019-03-30T23:27:16.616Z,8.86
2019-03-30T23:29:46.931Z,8.95
2019-03-30T23:32:17.252Z,8.71
2019-03-30T23:34:47.571Z,8.60
2019-03-30T23:37:18.113Z,8.83
2019-03-30T23:39:49.837Z,8.83
2019-03-30T23:42:20.113Z,8.68
2019-03-30T23:44:50.510Z,8.51
2019-03-30T23:47:20.725Z,8.67
2019-03-30T23:49:49.876Z,8.69
2019-03-30T23:52:20.054Z,8.55
2019-03-30T23:54:50.594Z,8.29
2019-03-30T23:57:20.879Z,8.19
2019-03-30T23:59:50.931Z,8.19
